Time;durP1;ratioP1;P1;durP2;ratioP2;P2;SDS_P1;SDS_P2;PMS_P1;PMS_P2;Temp;Humidity;BMP_temperature;BMP_pressure;BME280_temperature;BME280_humidity;BME280_pressure;Samples;Min_cycle;Max_cycle;Signal;HPM_P1;HPM_P2
2023/03/27 00:00:15;;;;;;;0.50;0.20;;;8.20;99.90;;;;;;5118798;28;20459;-56
2023/03/27 00:02:42;;;;;;;0.32;0.20;;;8.20;99.90;;;;;;5117968;28;20416;-57
2023/03/27 00:05:10;;;;;;;0.30;0.10;;;8.30;99.90;;;;;;5118095;28;20858;-57
2023/03/27 00:07:40;;;;;;;0.40;0.20;;;8.40;99.90;;;;;;5117897;28;20879;-58
2023/03/27 00:10:08;;;;;;;0.30;0.20;;;8.30;99.90;;;;;;5118566;28;20816;-57
2023/03/27 00:12:35;;;;;;;0.30;0.20;;;8.30;99.90;;;;;;5118756;28;20423;-57
2023/03/27 00:15:04;;;;;;;0.40;0.20;;;8.30;99.90;;;;;;5117382;28;20420;-57
2023/03/27 00:17:31;;;;;;;0.40;0.20;;;8.10;99.90;;;;;;5119129;28;20466;-55
2023/03/27 00:19:58;;;;;;;0.40;0.20;;;8.10;99.90;;;;;;5119018;28;20432;-58
2023/03/27 00:22:25;;;;;;;0.40;0.20;;;8.00;99.90;;;;;;5118508;28;20534;-59
2023/03/27 00:24:52;;;;;;;0.40;0.20;;;8.10;99.90;;;;;;5117880;28;20451;-57
2023/03/27 00:27:18;;;;;;;0.40;0.20;;;8.10;99.90;;;;;;5117875;28;20505;-58
2023/03/27 00:29:45;;;;;;;0.40;0.20;;;8.00;99.90;;;;;;5114573;28;20800;-58
2023/03/27 00:32:14;;;;;;;0.43;0.30;;;8.10;99.90;;;;;;5116497;28;20431;-57
2023/03/27 00:34:41;;;;;;;0.80;0.20;;;8.00;99.90;;;;;;5117182;28;20451;-54
2023/03/27 00:37:07;;;;;;;0.50;0.30;;;8.00;99.90;;;;;;5117285;28;20486;-57
2023/03/27 00:39:34;;;;;;;0.45;0.30;;;7.90;99.90;;;;;;5115034;28;20875;-56
2023/03/27 00:42:02;;;;;;;0.45;0.30;;;7.90;99.90;;;;;;5117394;28;20503;-57
2023/03/27 00:44:33;;;;;;;0.50;0.30;;;7.90;99.90;;;;;;5116334;28;20731;-58
2023/03/27 00:47:02;;;;;;;0.40;0.20;;;7.90;99.90;;;;;;5114358;28;20439;-57
2023/03/27 00:49:35;;;;;;;0.40;0.30;;;8.00;99.90;;;;;;5104172;28;20519;-57
2023/03/27 00:52:05;;;;;;;0.50;0.30;;;8.00;99.90;;;;;;5097055;28;20508;-57
2023/03/27 00:54:38;;;;;;;0.60;0.30;;;8.10;99.90;;;;;;5109720;28;20720;-57
2023/03/27 00:57:09;;;;;;;0.55;0.30;;;7.90;99.90;;;;;;5117627;28;20469;-58
2023/03/27 00:59:40;;;;;;;0.60;0.30;;;7.80;99.90;;;;;;5117506;28;20416;-57
2023/03/27 01:02:08;;;;;;;0.50;0.40;;;7.80;99.90;;;;;;5116571;28;20420;-55
2023/03/27 01:04:38;;;;;;;0.50;0.30;;;7.80;99.90;;;;;;5115493;28;20913;-55
2023/03/27 01:07:07;;;;;;;0.50;0.30;;;7.70;99.90;;;;;;5116439;28;20519;-56
2023/03/27 01:09:34;;;;;;;0.60;0.30;;;7.70;99.90;;;;;;5116423;28;20416;-57
2023/03/27 01:12:19;;;;;;;0.40;0.30;;;7.80;99.90;;;;;;5116118;28;20519;-58
2023/03/27 01:14:57;;;;;;;0.40;0.20;;;7.90;99.90;;;;;;5115279;28;20931;-58
2023/03/27 01:17:39;;;;;;;0.30;0.20;;;7.90;99.90;;;;;;5116618;28;20416;-56
2023/03/27 01:20:41;;;;;;;0.45;0.20;;;7.80;99.90;;;;;;5116397;28;20417;-54
2023/03/27 01:23:36;;;;;;;0.40;0.20;;;7.70;99.90;;;;;;5117345;28;20411;-56
2023/03/27 01:26:23;;;;;;;0.60;0.20;;;7.50;99.90;;;;;;5116263;28;20900;-57
2023/03/27 01:28:56;;;;;;;0.40;0.20;;;7.60;99.90;;;;;;5114986;28;20420;-57
2023/03/27 01:31:35;;;;;;;0.40;0.20;;;7.70;99.90;;;;;;5115498;28;20542;-57
2023/03/27 01:34:45;;;;;;;0.40;0.20;;;7.70;99.90;;;;;;5115573;28;20791;-58
2023/03/27 01:37:52;;;;;;;0.60;0.30;;;7.70;99.90;;;;;;5115768;28;20872;-56
2023/03/27 01:40:26;;;;;;;0.57;0.30;;;7.70;99.90;;;;;;5116116;28;20529;-55
2023/03/27 01:42:59;;;;;;;0.50;0.30;;;7.80;99.90;;;;;;5108686;28;20492;-54
2023/03/27 01:45:34;;;;;;;0.50;0.30;;;7.60;99.90;;;;;;5101446;28;20449;-57
2023/03/27 01:48:07;;;;;;;0.60;0.30;;;7.60;99.90;;;;;;5096072;28;20430;-53
2023/03/27 01:50:39;;;;;;;0.47;0.30;;;7.50;99.90;;;;;;5095847;28;20414;-58
2023/03/27 01:53:12;;;;;;;0.50;0.30;;;7.50;99.90;;;;;;5096718;28;20485;-57
2023/03/27 01:55:45;;;;;;;0.60;0.30;;;7.40;99.90;;;;;;5116340;28;20467;-55
2023/03/27 01:58:19;;;;;;;0.45;0.20;;;7.40;99.90;;;;;;5115726;28;20407;-53
2023/03/27 02:00:51;;;;;;;0.60;0.30;;;7.20;99.90;;;;;;5116458;28;20507;-57
2023/03/27 02:03:21;;;;;;;0.50;0.30;;;7.20;99.90;;;;;;5115716;28;20794;-56
2023/03/27 02:05:52;;;;;;;0.40;0.20;;;7.10;99.90;;;;;;5115961;28;20851;-57
2023/03/27 02:08:23;;;;;;;1.20;0.30;;;7.10;99.90;;;;;;5116445;28;20467;-57
2023/03/27 02:10:56;;;;;;;0.60;0.30;;;7.10;99.90;;;;;;5115820;28;20486;-56
2023/03/27 02:13:27;;;;;;;0.70;0.40;;;7.10;99.90;;;;;;5116407;28;20463;-52
2023/03/27 02:15:55;;;;;;;1.33;0.40;;;7.00;99.90;;;;;;5114996;28;20444;-55
2023/03/27 02:18:27;;;;;;;2.93;0.60;;;7.00;99.90;;;;;;5099617;28;20490;-54
2023/03/27 02:20:54;;;;;;;1.55;0.60;;;6.90;99.90;;;;;;5095210;28;20774;-57
2023/03/27 02:23:22;;;;;;;0.90;0.60;;;6.80;99.90;;;;;;5097688;28;20418;-57
2023/03/27 02:25:50;;;;;;;2.50;0.60;;;6.70;99.90;;;;;;5115920;28;20741;-56
2023/03/27 02:28:34;;;;;;;1.80;0.70;;;6.80;99.90;;;;;;5115815;28;20902;-56
2023/03/27 02:31:09;;;;;;;1.42;0.68;;;6.80;99.90;;;;;;5115810;28;20816;-55
2023/03/27 02:33:46;;;;;;;1.70;0.75;;;6.70;99.90;;;;;;5115344;28;20459;-54
2023/03/27 02:36:24;;;;;;;1.50;0.80;;;6.50;99.90;;;;;;5115611;28;20428;-57
2023/03/27 02:38:54;;;;;;;3.70;0.80;;;6.40;99.90;;;;;;5115854;28;20415;-55
2023/03/27 02:41:29;;;;;;;1.60;0.90;;;6.30;99.90;;;;;;5115511;28;20520;-55
2023/03/27 02:44:04;;;;;;;2.50;0.80;;;6.30;89.30;;;;;;5115253;28;20736;-56
2023/03/27 02:46:39;;;;;;;1.40;0.80;;;6.40;99.90;;;;;;5115544;28;20424;-56
2023/03/27 02:49:09;;;;;;;3.20;0.93;;;6.30;67.50;;;;;;5115093;28;20416;-56
2023/03/27 02:51:40;;;;;;;2.40;0.90;;;6.20;99.90;;;;;;5114535;28;20695;-53
2023/03/27 02:54:11;;;;;;;1.88;0.90;;;6.10;87.20;;;;;;5115041;28;20508;-56
2023/03/27 02:56:43;;;;;;;3.70;0.90;;;6.30;99.90;;;;;;5115665;28;20528;-56
2023/03/27 02:59:15;;;;;;;4.28;1.00;;;6.40;99.90;;;;;;5114947;28;20777;-54
2023/03/27 03:01:44;;;;;;;1.60;1.00;;;6.30;99.90;;;;;;5114983;28;20432;-55
2023/03/27 03:04:16;;;;;;;2.60;1.00;;;6.20;99.90;;;;;;5112928;28;20559;-57
2023/03/27 03:06:44;;;;;;;6.05;0.90;;;6.00;92.20;;;;;;5113257;28;20428;-54
2023/03/27 03:09:13;;;;;;;6.60;1.10;;;5.90;79.20;;;;;;5113527;28;20420;-55
2023/03/27 03:11:46;;;;;;;4.63;0.90;;;5.80;60.30;;;;;;5113793;28;20431;-56
2023/03/27 03:14:14;;;;;;;1.70;1.00;;;5.70;78.90;;;;;;5113391;28;20412;-56
2023/03/27 03:16:41;;;;;;;3.00;1.00;;;5.70;84.30;;;;;;5113228;28;20427;-55
2023/03/27 03:19:08;;;;;;;2.13;0.90;;;5.60;73.10;;;;;;5112576;28;20449;-54
2023/03/27 03:21:36;;;;;;;2.58;0.90;;;5.60;96.30;;;;;;5103649;28;20891;-52
2023/03/27 03:24:03;;;;;;;2.83;1.00;;;5.60;98.90;;;;;;5100847;28;20451;-54
2023/03/27 03:26:31;;;;;;;5.22;0.90;;;5.80;94.90;;;;;;5111652;28;20481;-57
2023/03/27 03:28:58;;;;;;;2.67;1.13;;;5.80;96.60;;;;;;5111719;28;20459;-57
2023/03/27 03:31:26;;;;;;;3.08;1.00;;;5.50;87.10;;;;;;5111968;28;20489;-57
2023/03/27 03:33:53;;;;;;;3.08;1.50;;;5.70;99.90;;;;;;5112374;28;20503;-55
2023/03/27 03:36:20;;;;;;;4.28;1.00;;;5.60;99.90;;;;;;5112499;28;20499;-55
2023/03/27 03:38:46;;;;;;;3.20;1.00;;;5.70;99.90;;;;;;5112914;28;20896;-57
2023/03/27 03:41:14;;;;;;;1.80;0.77;;;5.80;79.00;;;;;;5114440;28;20502;-57
2023/03/27 03:43:41;;;;;;;4.20;0.85;;;5.80;61.60;;;;;;5114599;28;20418;-55
2023/03/27 03:46:08;;;;;;;4.10;0.90;;;5.70;69.20;;;;;;5113522;28;20459;-57
2023/03/27 03:48:36;;;;;;;2.13;0.80;;;5.70;62.60;;;;;;5113856;28;20512;-56
2023/03/27 03:51:03;;;;;;;1.83;0.80;;;5.60;51.00;;;;;;5113908;28;20519;-57
2023/03/27 03:53:30;;;;;;;3.80;0.77;;;5.50;44.70;;;;;;5113658;28;20419;-58
2023/03/27 03:55:57;;;;;;;2.30;0.70;;;5.40;43.10;;;;;;5113692;28;20467;-57
2023/03/27 03:58:24;;;;;;;1.73;0.80;;;5.50;72.70;;;;;;5114375;28;20412;-53
2023/03/27 04:00:53;;;;;;;3.70;0.80;;;5.60;73.30;;;;;;5096307;28;20425;-55
2023/03/27 04:03:20;;;;;;;2.60;0.70;;;5.60;25.80;;;;;;5094316;28;20478;-58
2023/03/27 04:05:49;;;;;;;1.73;0.70;;;5.70;29.10;;;;;;5093834;28;20580;-56
2023/03/27 04:08:16;;;;;;;2.90;0.70;;;5.70;28.30;;;;;;5093220;28;20482;-58
2023/03/27 04:10:43;;;;;;;2.65;0.70;;;5.80;12.80;;;;;;5102749;28;20512;-56
2023/03/27 04:13:10;;;;;;;3.30;0.80;;;5.70;1.00;;;;;;5094020;28;20509;-56
2023/03/27 04:15:37;;;;;;;3.15;0.70;;;5.70;12.40;;;;;;5096978;28;20576;-58
2023/03/27 04:18:04;;;;;;;3.70;0.70;;;5.70;8.00;;;;;;5097844;28;20885;-58
2023/03/27 04:20:33;;;;;;;1.83;0.70;;;5.70;18.10;;;;;;5097485;28;20920;-59
2023/03/27 04:23:02;;;;;;;2.15;0.70;;;5.70;9.70;;;;;;5116363;28;20434;-56
2023/03/27 04:25:29;;;;;;;1.95;0.60;;;5.70;1.00;;;;;;5117190;28;20507;-58
2023/03/27 04:27:57;;;;;;;1.50;0.70;;;5.70;1.40;;;;;;5116317;28;20804;-56
2023/03/27 04:30:26;;;;;;;2.20;0.70;;;5.80;1.00;;;;;;5111892;28;20414;-58
2023/03/27 04:32:58;;;;;;;4.47;0.77;;;5.80;1.00;;;;;;5095915;28;20426;-58
2023/03/27 04:35:25;;;;;;;1.88;0.70;;;5.80;1.00;;;;;;5096433;28;20414;-57
2023/03/27 04:37:52;;;;;;;2.50;0.70;;;5.70;1.00;;;;;;5095540;28;20878;-57
2023/03/27 04:40:21;;;;;;;2.17;0.60;;;5.60;1.00;;;;;;5100478;28;20937;-56
2023/03/27 04:42:48;;;;;;;2.57;0.60;;;5.60;1.00;;;;;;5116872;28;20508;-54
2023/03/27 04:45:19;;;;;;;1.80;0.50;;;5.30;1.00;;;;;;5118130;28;20416;-55
2023/03/27 04:47:47;;;;;;;1.17;0.40;;;5.20;1.00;;;;;;5116789;28;20507;-58
2023/03/27 04:50:15;;;;;;;1.43;0.60;;;5.10;1.00;;;;;;5116806;28;20417;-53
2023/03/27 04:52:42;;;;;;;1.00;0.50;;;5.10;1.00;;;;;;5117397;28;20500;-58
2023/03/27 04:55:11;;;;;;;1.38;0.50;;;5.00;1.00;;;;;;5117094;28;20886;-56
2023/03/27 04:57:40;;;;;;;1.63;0.50;;;4.90;1.00;;;;;;5116224;28;20420;-56
2023/03/27 05:00:15;;;;;;;1.50;0.50;;;4.80;1.00;;;;;;5117038;28;20807;-56
2023/03/27 05:02:42;;;;;;;1.77;0.40;;;5.10;1.00;;;;;;5116613;28;20424;-57
2023/03/27 05:05:09;;;;;;;1.17;0.40;;;4.90;1.00;;;;;;5115247;28;20470;-57
2023/03/27 05:07:36;;;;;;;2.40;0.40;;;4.90;1.00;;;;;;5115349;28;20516;-58
2023/03/27 05:10:04;;;;;;;2.88;0.40;;;4.70;1.00;;;;;;5115871;28;20761;-57
2023/03/27 05:12:31;;;;;;;2.08;0.40;;;4.70;1.00;;;;;;5114857;28;20511;-57
2023/03/27 05:15:02;;;;;;;2.22;0.43;;;4.70;1.00;;;;;;5115200;28;20416;-56
2023/03/27 05:17:31;;;;;;;0.90;0.40;;;4.60;1.00;;;;;;5115106;28;20750;-57
2023/03/27 05:19:58;;;;;;;0.80;0.40;;;4.70;1.00;;;;;;5115101;28;20416;-56
2023/03/27 05:22:25;;;;;;;1.83;0.50;;;4.50;99.90;;;;;;5116259;28;20476;-56
2023/03/27 05:24:52;;;;;;;1.30;0.30;;;4.60;1.00;;;;;;5114835;28;20412;-56
2023/03/27 05:27:19;;;;;;;0.90;0.40;;;4.50;75.60;;;;;;5111653;28;20514;-55
2023/03/27 05:29:46;;;;;;;1.13;0.30;;;4.50;95.00;;;;;;5104584;28;20820;-55
2023/03/27 05:32:15;;;;;;;1.00;0.40;;;4.50;99.90;;;;;;5095358;28;20429;-57
2023/03/27 05:34:42;;;;;;;1.50;0.50;;;4.10;99.90;;;;;;5095093;28;20444;-57
2023/03/27 05:37:09;;;;;;;2.20;0.40;;;4.20;1.00;;;;;;5096417;28;20699;-55
2023/03/27 05:39:36;;;;;;;1.83;0.40;;;4.40;1.00;;;;;;5096127;28;20611;-52
2023/03/27 05:42:04;;;;;;;2.30;0.40;;;4.50;99.90;;;;;;5094285;28;20465;-56
2023/03/27 05:44:31;;;;;;;3.20;0.40;;;4.40;99.90;;;;;;5094268;28;20501;-54
2023/03/27 05:46:58;;;;;;;1.50;0.40;;;4.40;1.00;;;;;;5094591;28;20547;-55
2023/03/27 05:49:26;;;;;;;0.82;0.40;;;4.50;1.00;;;;;;5094872;28;20816;-55
2023/03/27 05:51:53;;;;;;;1.20;0.40;;;4.50;99.90;;;;;;5094071;28;20865;-54
2023/03/27 05:54:20;;;;;;;2.08;0.40;;;4.30;1.00;;;;;;5105526;28;20492;-56
2023/03/27 05:56:47;;;;;;;1.20;0.40;;;4.10;99.90;;;;;;5114271;28;20420;-57
2023/03/27 05:59:14;;;;;;;2.03;0.40;;;4.20;1.00;;;;;;5113265;28;20416;-56
2023/03/27 06:01:41;;;;;;;0.87;0.40;;;4.30;1.00;;;;;;5112529;28;20463;-56
2023/03/27 06:04:09;;;;;;;1.88;0.40;;;4.40;1.00;;;;;;5112919;28;20423;-56
2023/03/27 06:06:38;;;;;;;2.60;0.43;;;4.30;99.90;;;;;;5110797;28;20430;-51
2023/03/27 06:09:06;;;;;;;2.60;0.50;;;4.40;99.90;;;;;;5102586;28;21104;-52
2023/03/27 06:11:33;;;;;;;2.50;0.40;;;4.50;99.90;;;;;;5092595;28;20426;-54
2023/03/27 06:14:00;;;;;;;1.40;0.40;;;4.50;99.90;;;;;;5090014;28;20517;-50
2023/03/27 06:16:27;;;;;;;1.23;0.35;;;4.40;99.90;;;;;;5093891;28;20772;-51
2023/03/27 06:18:54;;;;;;;1.52;0.50;;;4.30;1.00;;;;;;5086727;28;20436;-49
2023/03/27 06:21:21;;;;;;;1.85;0.50;;;4.10;99.90;;;;;;5111110;28;20424;-48
2023/03/27 06:23:50;;;;;;;2.03;0.50;;;4.30;1.00;;;;;;5091831;28;20901;-50
2023/03/27 06:26:17;;;;;;;1.35;1.10;;;4.40;99.90;;;;;;5091479;28;20425;-54
2023/03/27 06:28:44;;;;;;;2.50;0.40;;;4.20;99.90;;;;;;5092353;28;20873;-48
2023/03/27 06:31:13;;;;;;;2.77;0.40;;;4.20;1.00;;;;;;5092578;28;20966;-49
2023/03/27 06:33:40;;;;;;;2.53;0.47;;;4.40;99.90;;;;;;5106101;28;20481;-49
2023/03/27 06:36:08;;;;;;;1.45;0.40;;;4.50;1.00;;;;;;5090401;28;20816;-47
2023/03/27 06:38:36;;;;;;;2.50;0.40;;;4.40;5.70;;;;;;5091679;28;20422;-52
2023/03/27 06:41:04;;;;;;;1.50;0.30;;;4.30;1.00;;;;;;5095376;28;20443;-49
2023/03/27 06:43:31;;;;;;;1.17;0.40;;;4.10;99.90;;;;;;5092794;28;20840;-49
2023/03/27 06:45:58;;;;;;;2.58;0.40;;;4.10;1.00;;;;;;5101173;28;20525;-49
2023/03/27 06:48:26;;;;;;;0.90;0.40;;;4.20;1.00;;;;;;5092498;28;20436;-49
2023/03/27 06:50:53;;;;;;;1.48;0.40;;;4.00;99.90;;;;;;5090604;28;20794;-54
2023/03/27 06:53:21;;;;;;;1.80;0.40;;;3.90;1.00;;;;;;5091674;28;20452;-53
2023/03/27 06:55:48;;;;;;;1.30;0.40;;;4.00;99.90;;;;;;5091848;28;20456;-50
2023/03/27 06:58:18;;;;;;;1.73;0.40;;;4.10;1.00;;;;;;5091906;28;20418;-54
2023/03/27 07:00:45;;;;;;;1.98;0.40;;;3.80;1.00;;;;;;5093202;28;20997;-46
2023/03/27 07:03:13;;;;;;;1.50;0.40;;;3.80;1.00;;;;;;5091499;28;20944;-47
2023/03/27 07:05:41;;;;;;;1.38;0.40;;;3.90;1.00;;;;;;5092952;28;20436;-50
2023/03/27 07:08:10;;;;;;;2.00;0.40;;;4.10;14.10;;;;;;5101140;28;20774;-46
2023/03/27 07:10:38;;;;;;;1.50;0.32;;;4.10;1.00;;;;;;5099233;28;20438;-50
2023/03/27 07:13:05;;;;;;;2.95;0.40;;;4.20;1.00;;;;;;5090945;28;20883;-50
2023/03/27 07:15:34;;;;;;;1.23;0.30;;;4.40;1.00;;;;;;5092699;28;20530;-55
2023/03/27 07:18:03;;;;;;;1.60;0.40;;;4.40;1.00;;;;;;5091823;28;20868;-53
2023/03/27 07:20:31;;;;;;;1.52;0.40;;;4.40;1.00;;;;;;5090619;28;20929;-53
2023/03/27 07:22:59;;;;;;;1.60;0.30;;;4.30;99.90;;;;;;5091040;28;20521;-54
2023/03/27 07:25:27;;;;;;;0.98;0.30;;;4.20;99.90;;;;;;5099068;28;20449;-49
2023/03/27 07:27:59;;;;;;;1.00;0.40;;;4.20;99.90;;;;;;5090971;28;20838;-50
2023/03/27 07:30:26;;;;;;;2.42;0.40;;;4.20;1.00;;;;;;5088699;28;20425;-53
2023/03/27 07:32:57;;;;;;;2.78;0.40;;;4.30;68.50;;;;;;5091792;28;20478;-52
2023/03/27 07:35:24;;;;;;;1.40;0.40;;;4.30;1.00;;;;;;5091139;28;20421;-52
2023/03/27 07:37:54;;;;;;;1.60;0.40;;;4.30;1.00;;;;;;5095878;28;20521;-52
2023/03/27 07:40:25;;;;;;;1.70;0.45;;;4.40;99.90;;;;;;5093323;28;21067;-53
2023/03/27 07:42:53;;;;;;;1.80;0.40;;;4.70;1.00;;;;;;5095459;28;20465;-51
2023/03/27 07:45:22;;;;;;;1.00;0.40;;;4.90;99.90;;;;;;5103585;28;20856;-54
2023/03/27 07:47:50;;;;;;;2.05;0.40;;;5.10;99.90;;;;;;5104050;28;20437;-53
2023/03/27 07:50:20;;;;;;;2.40;0.50;;;5.00;99.90;;;;;;5103525;28;20451;-53
2023/03/27 07:52:48;;;;;;;3.35;0.45;;;4.90;99.90;;;;;;5096444;28;20454;-49
2023/03/27 07:55:17;;;;;;;1.00;0.40;;;4.80;99.90;;;;;;5106785;28;20523;-50
2023/03/27 07:57:47;;;;;;;2.80;0.40;;;4.70;99.90;;;;;;5092986;28;20873;-50
2023/03/27 08:00:16;;;;;;;1.50;0.32;;;4.80;99.90;;;;;;5093070;28;20414;-53
2023/03/27 08:02:44;;;;;;;0.70;0.30;;;4.80;99.90;;;;;;5107380;28;20428;-48
2023/03/27 08:05:12;;;;;;;2.70;0.40;;;4.90;99.90;;;;;;5100668;28;20419;-51
2023/03/27 08:07:41;;;;;;;1.60;0.40;;;4.90;99.90;;;;;;5106093;28;20544;-50
2023/03/27 08:10:10;;;;;;;0.90;0.30;;;4.80;99.90;;;;;;5098689;28;20437;-49
2023/03/27 08:12:37;;;;;;;0.90;0.30;;;4.70;99.90;;;;;;5091957;28;20486;-53
2023/03/27 08:15:06;;;;;;;2.55;0.40;;;4.60;99.90;;;;;;5093631;28;20434;-51
2023/03/27 08:17:34;;;;;;;1.00;0.40;;;4.40;99.90;;;;;;5091589;28;20436;-53
2023/03/27 08:20:07;;;;;;;1.00;0.30;;;4.50;99.90;;;;;;5107292;28;20456;-50
2023/03/27 08:22:35;;;;;;;2.00;0.40;;;4.60;1.00;;;;;;5095733;28;20448;-53
2023/03/27 08:25:05;;;;;;;2.50;0.40;;;4.70;99.90;;;;;;5107929;28;20520;-53
2023/03/27 08:27:32;;;;;;;1.10;0.40;;;4.70;99.90;;;;;;5099003;28;20434;-53
2023/03/27 08:29:59;;;;;;;2.85;0.40;;;4.70;99.90;;;;;;5106336;28;20456;-51
2023/03/27 08:32:26;;;;;;;2.70;0.40;;;4.80;99.90;;;;;;5099585;28;20508;-52
2023/03/27 08:34:54;;;;;;;0.85;0.30;;;4.90;99.90;;;;;;5111511;28;20513;-53
2023/03/27 08:37:21;;;;;;;3.30;0.40;;;5.00;99.90;;;;;;5095861;28;20430;-53
2023/03/27 08:39:48;;;;;;;0.80;0.32;;;5.00;99.90;;;;;;5094139;28;20501;-51
2023/03/27 08:42:18;;;;;;;0.70;0.30;;;4.90;99.90;;;;;;5092543;28;20426;-53
2023/03/27 08:44:46;;;;;;;1.90;0.30;;;5.10;99.90;;;;;;5095501;28;20803;-51
2023/03/27 08:47:17;;;;;;;2.70;0.40;;;5.40;99.90;;;;;;5095485;28;20418;-52
2023/03/27 08:49:50;;;;;;;1.60;0.30;;;5.40;99.90;;;;;;5093737;28;20513;-50
2023/03/27 08:52:20;;;;;;;1.65;0.30;;;5.40;99.90;;;;;;5094296;28;20822;-56
2023/03/27 08:54:57;;;;;;;1.60;0.35;;;5.30;99.90;;;;;;5114913;28;20452;-55
2023/03/27 08:57:30;;;;;;;0.93;0.30;;;5.20;99.90;;;;;;5108705;28;20434;-52
2023/03/27 08:59:58;;;;;;;0.90;0.30;;;5.30;99.90;;;;;;5092857;28;20479;-55
2023/03/27 09:02:35;;;;;;;0.60;0.30;;;5.30;99.90;;;;;;5095797;28;20524;-54
2023/03/27 09:05:08;;;;;;;1.50;0.40;;;5.50;99.90;;;;;;5095290;28;20496;-58
2023/03/27 09:07:41;;;;;;;1.30;0.30;;;5.50;99.90;;;;;;5095970;28;20468;-56
2023/03/27 09:10:16;;;;;;;0.88;0.30;;;5.60;99.90;;;;;;5094518;28;20742;-55
2023/03/27 09:13:00;;;;;;;1.20;0.30;;;5.70;99.90;;;;;;5094877;28;20417;-56
2023/03/27 09:15:32;;;;;;;0.90;0.30;;;5.80;99.90;;;;;;5093918;28;20501;-56
2023/03/27 09:18:03;;;;;;;1.25;0.30;;;5.90;99.90;;;;;;5094527;28;20452;-56
2023/03/27 09:20:36;;;;;;;0.70;0.30;;;6.00;99.90;;;;;;5093551;28;20418;-56
2023/03/27 09:23:11;;;;;;;1.47;0.30;;;6.20;99.90;;;;;;5108403;28;20983;-57
2023/03/27 09:25:45;;;;;;;1.25;0.30;;;6.30;99.90;;;;;;5115693;28;20452;-56
2023/03/27 09:28:21;;;;;;;1.23;0.30;;;6.40;99.90;;;;;;5115506;28;20416;-55
2023/03/27 09:30:48;;;;;;;1.70;0.30;;;6.50;99.90;;;;;;5100212;28;20849;-57
2023/03/27 09:33:16;;;;;;;1.40;0.30;;;6.50;99.90;;;;;;5094165;28;20426;-56
2023/03/27 09:35:43;;;;;;;1.50;0.30;;;6.60;99.90;;;;;;5095944;28;20429;-55
2023/03/27 09:38:28;;;;;;;1.30;0.40;;;6.70;99.90;;;;;;5094442;28;20535;-52
2023/03/27 09:40:58;;;;;;;1.90;0.40;;;6.80;99.90;;;;;;5109312;28;20839;-54
2023/03/27 09:43:36;;;;;;;1.63;0.30;;;7.00;99.90;;;;;;5109757;28;20436;-56
2023/03/27 09:46:04;;;;;;;2.17;0.30;;;7.10;99.90;;;;;;5099548;28;20730;-55
2023/03/27 09:48:36;;;;;;;0.50;0.30;;;6.90;99.90;;;;;;5097690;28;20511;-53
2023/03/27 09:51:04;;;;;;;3.50;0.40;;;6.60;99.90;;;;;;5097003;28;22250;-54
2023/03/27 09:53:31;;;;;;;0.90;0.30;;;6.70;99.90;;;;;;5098314;28;20855;-51
2023/03/27 09:56:00;;;;;;;0.50;0.30;;;6.70;99.90;;;;;;5099838;28;20434;-54
2023/03/27 09:58:39;;;;;;;1.10;0.30;;;7.20;99.90;;;;;;5106830;28;20429;-52
2023/03/27 10:01:14;;;;;;;1.33;0.30;;;7.40;99.90;;;;;;5094057;28;20815;-53
2023/03/27 10:03:47;;;;;;;1.10;0.40;;;7.80;99.90;;;;;;5097566;28;20463;-52
2023/03/27 10:06:16;;;;;;;1.25;0.30;;;8.00;99.90;;;;;;5107231;28;20440;-51
2023/03/27 10:08:48;;;;;;;1.30;0.30;;;7.90;99.90;;;;;;5096881;28;20418;-50
2023/03/27 10:11:18;;;;;;;2.10;0.22;;;7.70;99.90;;;;;;5096096;28;20424;-49
2023/03/27 10:13:48;;;;;;;0.80;0.30;;;7.50;99.90;;;;;;5097750;28;20475;-53
2023/03/27 10:16:17;;;;;;;1.45;0.30;;;7.50;99.90;;;;;;5090854;28;20465;-52
2023/03/27 10:18:47;;;;;;;0.73;0.30;;;7.30;99.90;;;;;;5093111;28;20799;-52
2023/03/27 10:21:24;;;;;;;1.40;0.30;;;7.80;99.90;;;;;;5096172;28;20470;-53
2023/03/27 10:23:51;;;;;;;0.88;0.30;;;8.10;99.90;;;;;;5103268;28;20416;-51
2023/03/27 10:26:25;;;;;;;0.90;0.30;;;8.00;99.90;;;;;;5093124;28;20732;-52
2023/03/27 10:29:00;;;;;;;1.00;0.30;;;7.70;99.90;;;;;;5090993;28;20857;-48
2023/03/27 10:31:30;;;;;;;2.20;0.30;;;7.40;99.90;;;;;;5093350;28;21027;-52
2023/03/27 10:34:02;;;;;;;1.40;0.30;;;7.70;99.90;;;;;;5098856;28;20424;-53
2023/03/27 10:36:33;;;;;;;1.30;0.38;;;8.20;99.90;;;;;;5097389;28;20738;-49
2023/03/27 10:39:04;;;;;;;1.15;0.40;;;8.70;99.90;;;;;;5093961;28;20422;-53
2023/03/27 10:41:33;;;;;;;1.00;0.40;;;9.00;99.90;;;;;;5094610;28;20721;-55
2023/03/27 10:44:05;;;;;;;0.90;0.40;;;9.00;99.90;;;;;;5092011;28;20504;-52
2023/03/27 10:46:39;;;;;;;1.03;0.30;;;8.60;99.90;;;;;;5094450;28;20522;-52
2023/03/27 10:49:16;;;;;;;1.00;0.40;;;8.50;99.90;;;;;;5095964;28;20545;-51
2023/03/27 10:51:48;;;;;;;1.40;0.30;;;8.90;99.90;;;;;;5106205;28;20859;-51
2023/03/27 10:54:21;;;;;;;0.93;0.30;;;9.40;99.90;;;;;;5112713;28;20803;-52
2023/03/27 10:56:55;;;;;;;0.90;0.30;;;9.60;99.90;;;;;;5112324;28;20940;-52
2023/03/27 10:59:29;;;;;;;0.85;0.40;;;10.00;99.90;;;;;;5113556;28;20481;-50
2023/03/27 11:02:01;;;;;;;1.50;0.40;;;9.90;99.90;;;;;;5111933;28;21107;-53
2023/03/27 11:04:39;;;;;;;0.60;0.30;;;9.30;99.90;;;;;;5099699;28;20423;-55
2023/03/27 11:07:12;;;;;;;1.50;0.30;;;8.80;99.90;;;;;;5096027;28;20438;-52
2023/03/27 11:09:48;;;;;;;1.30;0.40;;;8.70;99.90;;;;;;5113294;28;20832;-51
2023/03/27 11:12:16;;;;;;;2.30;0.40;;;8.70;99.90;;;;;;5103019;28;21059;-53
2023/03/27 11:14:52;;;;;;;0.60;0.30;;;9.00;98.60;;;;;;5093103;28;20424;-56
2023/03/27 11:17:25;;;;;;;0.68;0.30;;;9.00;99.90;;;;;;5102718;28;20547;-53
2023/03/27 11:19:59;;;;;;;2.00;0.32;;;9.40;99.60;;;;;;5093111;28;20736;-52
2023/03/27 11:22:30;;;;;;;1.20;0.35;;;10.00;97.00;;;;;;5093218;28;20751;-49
2023/03/27 11:25:05;;;;;;;2.50;0.40;;;9.90;97.30;;;;;;5115885;28;20439;-54
2023/03/27 11:27:40;;;;;;;1.60;0.30;;;9.50;96.10;;;;;;5112377;28;20519;-52
2023/03/27 11:30:43;;;;;;;1.00;0.30;;;9.00;94.80;;;;;;5096783;28;20422;-52
2023/03/27 11:33:26;;;;;;;1.02;0.30;;;8.90;95.20;;;;;;5101142;28;20839;-53
2023/03/27 11:36:01;;;;;;;1.10;0.30;;;8.70;96.60;;;;;;5114117;28;20455;-50
2023/03/27 11:38:31;;;;;;;0.70;0.30;;;8.50;99.90;;;;;;5108677;28;20506;-55
2023/03/27 11:40:58;;;;;;;1.33;0.30;;;8.30;99.80;;;;;;5107639;28;20457;-51
2023/03/27 11:43:25;;;;;;;0.77;0.30;;;7.90;99.90;;;;;;5094391;28;20494;-50
2023/03/27 11:46:07;;;;;;;1.02;0.35;;;7.90;99.90;;;;;;5102442;28;21042;-51
2023/03/27 11:48:49;;;;;;;0.75;0.30;;;8.10;99.90;;;;;;5106299;28;20429;-52
2023/03/27 11:51:26;;;;;;;1.30;0.30;;;8.00;99.90;;;;;;5096131;28;20827;-51
2023/03/27 11:54:12;;;;;;;1.50;0.40;;;8.60;99.90;;;;;;5106993;28;20440;-50
2023/03/27 11:56:50;;;;;;;1.30;0.30;;;9.20;99.60;;;;;;5097630;28;20867;-55
2023/03/27 11:59:41;;;;;;;0.85;0.30;;;9.50;98.00;;;;;;5096835;28;20540;-54
2023/03/27 12:02:35;;;;;;;0.82;0.40;;;9.70;98.40;;;;;;5107982;28;20428;-55
2023/03/27 12:05:13;;;;;;;1.10;0.20;;;10.50;96.60;;;;;;5097356;28;20516;-51
2023/03/27 12:07:47;;;;;;;0.70;0.30;;;10.90;90.50;;;;;;5101472;28;21066;-54
2023/03/27 12:10:31;;;;;;;0.50;0.20;;;10.60;90.70;;;;;;5110033;28;20465;-52
2023/03/27 12:13:41;;;;;;;1.00;0.30;;;10.20;89.50;;;;;;5108456;28;20427;-51
2023/03/27 12:16:24;;;;;;;0.73;0.30;;;10.40;89.40;;;;;;5096321;28;20486;-55
2023/03/27 12:19:05;;;;;;;0.83;0.33;;;11.00;90.00;;;;;;5101238;28;20928;-55
2023/03/27 12:21:45;;;;;;;0.63;0.30;;;11.00;86.20;;;;;;5095730;28;20432;-55
2023/03/27 12:24:27;;;;;;;1.10;0.30;;;11.20;86.80;;;;;;5096702;28;20529;-50
2023/03/27 12:27:15;;;;;;;1.10;0.30;;;11.30;86.80;;;;;;5103554;28;20503;-53
2023/03/27 12:29:59;;;;;;;0.60;0.30;;;11.30;83.60;;;;;;5101700;28;20445;-49
2023/03/27 12:32:47;;;;;;;0.95;0.20;;;11.10;85.90;;;;;;5104001;28;20540;-55
2023/03/27 12:35:18;;;;;;;1.77;0.40;;;11.20;81.00;;;;;;5101461;28;21018;-51
2023/03/27 12:37:51;;;;;;;2.00;0.30;;;10.70;82.40;;;;;;5102560;28;20465;-51
2023/03/27 12:40:30;;;;;;;1.77;0.60;;;10.50;85.00;;;;;;5090484;28;20425;-52
2023/03/27 12:43:09;;;;;;;1.20;0.30;;;10.00;86.70;;;;;;5094015;28;21040;-55
2023/03/27 12:45:37;;;;;;;1.05;0.30;;;10.00;87.50;;;;;;5093561;28;20858;-51
2023/03/27 12:48:17;;;;;;;0.77;0.20;;;9.90;90.40;;;;;;5101979;28;20422;-54
2023/03/27 12:50:56;;;;;;;1.95;0.30;;;10.10;88.80;;;;;;5099165;28;20434;-53
2023/03/27 12:53:51;;;;;;;0.93;0.30;;;10.30;91.20;;;;;;5099572;28;20428;-52
2023/03/27 12:56:25;;;;;;;0.43;0.20;;;10.30;89.80;;;;;;5095818;28;20440;-55
2023/03/27 12:58:54;;;;;;;1.17;0.30;;;10.50;91.20;;;;;;5098445;28;20460;-54
2023/03/27 13:01:37;;;;;;;0.60;0.30;;;10.60;88.20;;;;;;5101872;28;20533;-53
2023/03/27 13:04:25;;;;;;;0.70;0.30;;;10.80;86.80;;;;;;5095190;28;20752;-55
2023/03/27 13:07:03;;;;;;;0.70;0.20;;;10.90;90.20;;;;;;5099677;28;20465;-55
2023/03/27 13:09:52;;;;;;;1.10;0.30;;;11.10;89.10;;;;;;5099598;28;20918;-56
2023/03/27 13:12:46;;;;;;;0.80;0.30;;;10.80;85.90;;;;;;5096637;28;20871;-52
2023/03/27 13:15:31;;;;;;;0.70;0.20;;;10.30;90.40;;;;;;5096838;28;20434;-53
2023/03/27 13:18:21;;;;;;;0.50;0.25;;;10.00;88.30;;;;;;5095757;28;20513;-49
2023/03/27 13:20:59;;;;;;;0.70;0.30;;;9.70;92.30;;;;;;5092875;28;20801;-49